Time;durP1;ratioP1;P1;durP2;ratioP2;P2;SDS_P1;SDS_P2;PMS_P1;PMS_P2;Temp;Humidity;BMP_temperature;BMP_pressure;BME280_temperature;BME280_humidity;BME280_pressure;Samples;Min_cycle;Max_cycle;Signal;HPM_P1;HPM_P2
2023/08/19 00:01:39;;;;;;;23.58;16.83;;;19.10;99.90;;;;;;4998256;28;20743;-76
2023/08/19 00:04:05;;;;;;;21.73;15.80;;;19.20;99.90;;;;;;4998648;28;20042;-76
2023/08/19 00:06:39;;;;;;;22.02;15.73;;;19.20;99.90;;;;;;4975739;28;20512;-76
2023/08/19 00:09:07;;;;;;;21.20;15.05;;;19.20;99.90;;;;;;4982253;28;20046;-76
2023/08/19 00:11:34;;;;;;;22.20;15.82;;;19.20;99.90;;;;;;4984220;28;20038;-76
2023/08/19 00:14:01;;;;;;;22.45;15.43;;;19.10;99.90;;;;;;4999185;28;20108;-76
2023/08/19 00:16:27;;;;;;;23.38;16.52;;;19.10;99.90;;;;;;4992376;28;20559;-76
2023/08/19 00:18:53;;;;;;;21.83;15.40;;;19.10;99.90;;;;;;4999734;28;20047;-76
2023/08/19 00:21:18;;;;;;;25.13;16.80;;;19.00;99.90;;;;;;4999224;28;20131;-76
2023/08/19 00:23:44;;;;;;;22.27;15.38;;;19.10;99.90;;;;;;4969554;28;20066;-76
2023/08/19 00:26:12;;;;;;;20.42;15.15;;;19.10;99.90;;;;;;5002907;28;20096;-76
2023/08/19 00:28:38;;;;;;;22.75;15.90;;;19.10;99.90;;;;;;4986731;28;20045;-76
2023/08/19 00:31:05;;;;;;;21.55;15.55;;;19.00;99.90;;;;;;4971394;28;20070;-76
2023/08/19 00:33:31;;;;;;;22.33;14.93;;;19.10;99.90;;;;;;4993751;28;20062;-76
2023/08/19 00:35:56;;;;;;;21.17;15.35;;;19.00;99.90;;;;;;4984357;28;20035;-76
2023/08/19 00:38:22;;;;;;;22.10;15.77;;;19.00;99.90;;;;;;4997394;28;20042;-76
2023/08/19 00:40:48;;;;;;;21.95;15.07;;;19.10;99.90;;;;;;4981551;28;20085;-76
2023/08/19 00:43:13;;;;;;;21.50;15.50;;;19.10;99.90;;;;;;4984596;28;20523;-76
2023/08/19 00:45:44;;;;;;;20.08;14.38;;;19.10;99.90;;;;;;4974153;28;20034;-76
2023/08/19 00:48:11;;;;;;;20.88;15.27;;;19.10;99.90;;;;;;4986526;28;20038;-76
2023/08/19 00:50:38;;;;;;;19.35;14.50;;;19.10;99.90;;;;;;4989290;28;20428;-76
2023/08/19 00:53:04;;;;;;;22.98;15.60;;;19.20;99.90;;;;;;4974552;28;20046;-76
2023/08/19 00:55:30;;;;;;;20.92;14.95;;;19.10;99.90;;;;;;4993380;28;20039;-76
2023/08/19 00:57:56;;;;;;;24.30;16.52;;;19.10;99.90;;;;;;4983800;28;20061;-76
2023/08/19 01:00:23;;;;;;;23.27;16.50;;;19.10;99.90;;;;;;4964283;28;20042;-76
2023/08/19 01:02:48;;;;;;;21.70;15.80;;;19.10;99.90;;;;;;5003273;28;20042;-76
2023/08/19 01:05:14;;;;;;;24.45;15.63;;;19.10;99.90;;;;;;4985214;28;20477;-76
2023/08/19 01:07:43;;;;;;;22.98;15.30;;;19.20;99.90;;;;;;4969126;28;20038;-76
2023/08/19 01:10:15;;;;;;;22.33;16.55;;;19.20;99.90;;;;;;5004306;28;20084;-76
2023/08/19 01:12:50;;;;;;;23.05;16.38;;;19.20;99.90;;;;;;4985749;28;20039;-76
2023/08/19 01:16:00;;;;;;;22.10;16.08;;;19.20;99.90;;;;;;4985017;28;20177;-76
2023/08/19 01:18:26;;;;;;;20.08;14.68;;;19.20;99.90;;;;;;4969166;28;20070;-76
2023/08/19 01:20:54;;;;;;;22.17;15.52;;;19.20;99.90;;;;;;4981827;28;20557;-76
2023/08/19 01:23:30;;;;;;;22.63;15.73;;;19.20;99.90;;;;;;4990877;28;20144;-76
2023/08/19 01:25:56;;;;;;;22.20;15.75;;;19.20;99.90;;;;;;4986801;28;20046;-76
2023/08/19 01:28:22;;;;;;;24.30;15.98;;;19.20;99.90;;;;;;4979334;28;20061;-76
2023/08/19 01:30:47;;;;;;;21.40;16.00;;;19.20;99.90;;;;;;4997488;28;20045;-76
2023/08/19 01:33:13;;;;;;;23.85;16.35;;;19.20;99.90;;;;;;4989123;28;20042;-76
2023/08/19 01:35:52;;;;;;;22.73;16.20;;;19.20;99.90;;;;;;4987392;28;20057;-76
2023/08/19 01:38:33;;;;;;;24.17;16.40;;;19.20;99.90;;;;;;4997885;28;20490;-76
2023/08/19 01:40:59;;;;;;;20.98;16.17;;;19.20;99.90;;;;;;4986467;28;20543;-76
2023/08/19 01:43:26;;;;;;;23.38;16.77;;;19.20;99.90;;;;;;4984906;28;20088;-76
2023/08/19 01:45:52;;;;;;;23.85;15.80;;;19.20;99.90;;;;;;4986608;28;20768;-75
2023/08/19 01:48:17;;;;;;;24.70;15.88;;;19.30;99.90;;;;;;4995810;28;20038;-76
2023/08/19 01:50:43;;;;;;;20.00;14.75;;;19.20;99.90;;;;;;5000782;28;20117;-76
2023/08/19 01:53:08;;;;;;;21.00;15.25;;;19.30;99.90;;;;;;4978595;28;20122;-76
2023/08/19 01:55:34;;;;;;;24.45;15.80;;;19.20;99.90;;;;;;5001257;28;20485;-76
2023/08/19 01:58:00;;;;;;;19.85;15.25;;;19.20;99.90;;;;;;4983193;28;20044;-76
2023/08/19 02:00:25;;;;;;;25.17;16.55;;;19.20;99.90;;;;;;4998864;28;20364;-76
2023/08/19 02:02:51;;;;;;;21.52;16.20;;;19.10;99.90;;;;;;4988065;28;20034;-76
2023/08/19 02:05:16;;;;;;;22.48;16.67;;;19.20;99.90;;;;;;4968673;28;20394;-76
2023/08/19 02:07:42;;;;;;;22.88;15.73;;;19.20;99.90;;;;;;5002200;28;20558;-76
2023/08/19 02:10:08;;;;;;;23.40;16.02;;;19.20;99.90;;;;;;4994080;28;20510;-76
2023/08/19 02:12:34;;;;;;;19.65;14.65;;;19.20;99.90;;;;;;4969560;28;20045;-76
2023/08/19 02:15:00;;;;;;;24.65;15.88;;;19.20;99.90;;;;;;5000369;28;20038;-76
2023/08/19 02:17:25;;;;;;;21.27;15.40;;;19.10;99.90;;;;;;4986616;28;20038;-77
2023/08/19 02:19:51;;;;;;;22.98;15.43;;;19.20;99.90;;;;;;4985282;28;20069;-76
2023/08/19 02:22:20;;;;;;;23.58;16.35;;;19.10;99.90;;;;;;4998305;28;20489;-76
2023/08/19 02:24:47;;;;;;;22.70;15.05;;;19.20;99.90;;;;;;4978023;28;20038;-76
2023/08/19 02:27:12;;;;;;;20.42;15.00;;;19.20;99.90;;;;;;4985461;28;20042;-77
2023/08/19 02:29:38;;;;;;;19.42;14.05;;;19.20;99.90;;;;;;4991242;28;20161;-76
2023/08/19 02:32:04;;;;;;;23.73;16.70;;;19.10;99.90;;;;;;4970036;28;20042;-77
2023/08/19 02:34:30;;;;;;;22.50;15.77;;;19.20;99.90;;;;;;4985188;28;20038;-76
2023/08/19 02:36:55;;;;;;;22.67;15.50;;;19.20;99.90;;;;;;4984980;28;20046;-76
2023/08/19 02:39:21;;;;;;;21.90;15.35;;;19.10;99.90;;;;;;4984365;28;20042;-76
2023/08/19 02:41:47;;;;;;;21.73;15.48;;;19.10;99.90;;;;;;4991530;28;20131;-76
2023/08/19 02:44:12;;;;;;;22.30;14.60;;;19.10;99.90;;;;;;4979931;28;20070;-77
2023/08/19 02:46:38;;;;;;;21.58;15.65;;;19.10;99.90;;;;;;5000124;28;20129;-77
2023/08/19 02:49:03;;;;;;;20.27;14.95;;;19.10;99.90;;;;;;4985082;28;20383;-76
2023/08/19 02:51:29;;;;;;;20.00;14.80;;;19.10;99.90;;;;;;4970775;28;20030;-76
2023/08/19 02:53:55;;;;;;;21.77;14.45;;;19.00;99.90;;;;;;4984320;28;20100;-76
2023/08/19 02:56:21;;;;;;;23.55;15.73;;;19.10;99.90;;;;;;4984212;28;20444;-77
2023/08/19 02:58:46;;;;;;;20.02;14.65;;;19.10;99.90;;;;;;4997542;28;20038;-76
2023/08/19 03:01:13;;;;;;;19.67;14.27;;;19.00;99.90;;;;;;4983802;28;20649;-76
2023/08/19 03:03:39;;;;;;;22.95;15.40;;;19.00;99.90;;;;;;4984598;28;20050;-77
2023/08/19 03:06:04;;;;;;;20.40;14.60;;;19.00;99.90;;;;;;4978380;28;20046;-77
2023/08/19 03:08:30;;;;;;;21.98;13.75;;;19.00;99.90;;;;;;4966190;28;20089;-77
2023/08/19 03:10:56;;;;;;;21.27;14.27;;;19.00;99.90;;;;;;4983046;28;20108;-76
2023/08/19 03:13:22;;;;;;;18.75;13.52;;;19.00;99.90;;;;;;4990299;28;20050;-76
2023/08/19 03:15:48;;;;;;;22.33;14.50;;;18.90;99.90;;;;;;5000478;28;20034;-77
2023/08/19 03:18:16;;;;;;;19.77;14.65;;;19.00;99.90;;;;;;4998133;28;20129;-77
2023/08/19 03:20:42;;;;;;;23.55;15.00;;;19.00;99.90;;;;;;4981367;28;20039;-77
2023/08/19 03:23:08;;;;;;;23.30;15.90;;;19.00;99.90;;;;;;4983875;28;20196;-76
2023/08/19 03:25:33;;;;;;;19.10;14.02;;;19.00;99.90;;;;;;4983687;28;20033;-76
2023/08/19 03:27:59;;;;;;;21.02;14.88;;;19.00;99.90;;;;;;4981517;28;20050;-77
2023/08/19 03:30:25;;;;;;;20.50;14.68;;;19.00;99.90;;;;;;4966648;28;20050;-76
2023/08/19 03:32:50;;;;;;;23.13;14.70;;;19.00;99.90;;;;;;4983593;28;20042;-76
2023/08/19 03:35:16;;;;;;;20.13;14.60;;;19.00;99.90;;;;;;4964268;28;20042;-76
2023/08/19 03:37:42;;;;;;;20.35;14.95;;;19.00;99.90;;;;;;4963053;28;20121;-77
2023/08/19 03:40:08;;;;;;;20.48;15.10;;;19.00;99.90;;;;;;4982135;28;20085;-76
2023/08/19 03:42:34;;;;;;;22.55;15.90;;;19.00;99.90;;;;;;4965992;28;20505;-77
2023/08/19 03:44:59;;;;;;;25.42;16.38;;;19.00;99.90;;;;;;4982984;28;20073;-76
2023/08/19 03:47:25;;;;;;;21.45;15.07;;;19.00;99.90;;;;;;4983128;28;20077;-76
2023/08/19 03:49:51;;;;;;;20.88;14.82;;;19.00;99.90;;;;;;4967986;28;20042;-77
2023/08/19 03:52:16;;;;;;;21.77;14.40;;;19.00;99.90;;;;;;4991257;28;20578;-77
2023/08/19 03:54:42;;;;;;;23.98;15.05;;;19.00;99.90;;;;;;4981844;28;20042;-77
2023/08/19 03:57:08;;;;;;;21.17;14.88;;;19.00;99.90;;;;;;4971340;28;20038;-77
2023/08/19 03:59:34;;;;;;;22.80;14.73;;;19.00;99.90;;;;;;4963169;28;20093;-76
2023/08/19 04:01:59;;;;;;;21.27;14.43;;;19.00;99.90;;;;;;4982019;28;20428;-77
2023/08/19 04:04:25;;;;;;;22.05;14.25;;;19.00;99.90;;;;;;4984106;28;20069;-77
2023/08/19 04:06:51;;;;;;;19.15;13.80;;;19.00;99.90;;;;;;4996348;28;20049;-76
2023/08/19 04:09:16;;;;;;;20.23;14.07;;;19.00;99.90;;;;;;4982265;28;20049;-77
2023/08/19 04:11:42;;;;;;;17.65;13.18;;;19.00;99.90;;;;;;4989086;28;20544;-76
2023/08/19 04:14:08;;;;;;;21.75;13.57;;;18.90;99.90;;;;;;4987107;28;20045;-76
2023/08/19 04:16:36;;;;;;;18.75;13.25;;;19.00;99.90;;;;;;4987472;28;20050;-77
2023/08/19 04:19:02;;;;;;;19.38;14.07;;;19.00;99.90;;;;;;4998008;28;20157;-77
2023/08/19 04:21:27;;;;;;;19.67;13.65;;;19.00;99.90;;;;;;5000066;28;20031;-77
2023/08/19 04:23:53;;;;;;;21.00;14.65;;;19.00;99.90;;;;;;4993959;28;20241;-77
2023/08/19 04:26:18;;;;;;;19.80;13.68;;;19.10;99.90;;;;;;4975269;28;20489;-77
2023/08/19 04:28:45;;;;;;;20.08;13.20;;;19.10;99.90;;;;;;4966587;28;20054;-77
2023/08/19 04:31:12;;;;;;;19.00;14.20;;;19.10;99.90;;;;;;5000637;28;20038;-77
2023/08/19 04:33:38;;;;;;;16.60;12.60;;;19.20;99.90;;;;;;4983673;28;20077;-78
2023/08/19 04:36:04;;;;;;;19.80;13.60;;;19.20;99.90;;;;;;5000518;28;20053;-76
2023/08/19 04:38:30;;;;;;;18.08;12.35;;;19.20;99.90;;;;;;4997488;28;20073;-76
2023/08/19 04:40:58;;;;;;;22.48;12.88;;;19.20;99.90;;;;;;4979445;28;20598;-76
2023/08/19 04:43:24;;;;;;;19.23;13.10;;;19.30;99.90;;;;;;4982994;28;20042;-76
2023/08/19 04:45:50;;;;;;;16.52;11.82;;;19.30;99.90;;;;;;4968504;28;20061;-77
2023/08/19 04:48:15;;;;;;;15.38;11.60;;;19.30;99.90;;;;;;4965839;28;20053;-76
2023/08/19 04:50:41;;;;;;;16.30;11.43;;;19.30;99.90;;;;;;4988327;28;20054;-75
2023/08/19 04:53:07;;;;;;;15.90;11.75;;;19.40;99.90;;;;;;4998904;28;20038;-76
2023/08/19 04:55:32;;;;;;;15.90;11.00;;;19.40;99.90;;;;;;4961235;28;20293;-77
2023/08/19 04:57:58;;;;;;;16.13;11.50;;;19.40;99.90;;;;;;4978892;28;20058;-76
2023/08/19 05:00:24;;;;;;;15.07;10.68;;;19.50;99.90;;;;;;4983187;28;20569;-76
2023/08/19 05:02:50;;;;;;;17.35;11.35;;;19.50;99.90;;;;;;4984022;28;20676;-77
2023/08/19 05:05:15;;;;;;;14.35;10.23;;;19.60;99.90;;;;;;4966744;28;20214;-76
2023/08/19 05:07:41;;;;;;;14.93;10.57;;;19.70;99.90;;;;;;4982003;28;20050;-77
2023/08/19 05:10:08;;;;;;;16.35;10.23;;;19.80;99.90;;;;;;4977770;28;20463;-74
2023/08/19 05:12:34;;;;;;;15.13;10.88;;;19.80;99.90;;;;;;5000960;28;20640;-77
2023/08/19 05:15:00;;;;;;;15.82;10.43;;;20.00;99.90;;;;;;4985091;28;20053;-77
2023/08/19 05:17:26;;;;;;;15.60;10.73;;;20.10;99.90;;;;;;4985985;28;20499;-76
2023/08/19 05:19:51;;;;;;;13.80;9.48;;;20.20;99.90;;;;;;4990812;28;20063;-77
2023/08/19 05:22:17;;;;;;;14.07;9.73;;;20.20;99.90;;;;;;4989905;28;20583;-77
2023/08/19 05:24:43;;;;;;;14.00;9.80;;;20.30;99.90;;;;;;4994122;28;20049;-76
2023/08/19 05:27:09;;;;;;;11.70;9.10;;;20.40;99.90;;;;;;4969018;28;20030;-76
2023/08/19 05:29:35;;;;;;;14.93;9.18;;;20.40;99.90;;;;;;4992537;28;20108;-77
2023/08/19 05:32:01;;;;;;;12.35;8.93;;;20.40;99.90;;;;;;4986046;28;20398;-77
2023/08/19 05:34:27;;;;;;;13.75;9.05;;;20.40;99.90;;;;;;4988239;28;20065;-77
2023/08/19 05:36:53;;;;;;;12.70;8.90;;;20.50;99.90;;;;;;5000998;28;20043;-77
2023/08/19 05:39:18;;;;;;;11.68;8.95;;;20.50;99.90;;;;;;4985409;28;20045;-77
2023/08/19 05:41:44;;;;;;;14.13;8.70;;;20.60;99.90;;;;;;4970458;28;20136;-77
2023/08/19 05:44:10;;;;;;;12.02;8.18;;;20.60;99.90;;;;;;4992225;28;20533;-77
2023/08/19 05:46:36;;;;;;;10.32;8.23;;;20.60;99.90;;;;;;4991119;28;20457;-75
2023/08/19 05:49:01;;;;;;;10.68;7.60;;;20.60;99.90;;;;;;4992288;28;20899;-77
2023/08/19 05:51:27;;;;;;;11.77;8.75;;;20.70;99.90;;;;;;5002596;28;20038;-77
2023/08/19 05:54:00;;;;;;;9.93;7.97;;;20.70;99.90;;;;;;4972452;28;20038;-76
2023/08/19 05:56:27;;;;;;;11.52;8.25;;;20.80;99.90;;;;;;4986851;28;20092;-76
2023/08/19 05:58:52;;;;;;;11.75;8.13;;;20.80;99.90;;;;;;4978641;28;20447;-77
2023/08/19 06:01:18;;;;;;;10.30;7.55;;;20.90;99.90;;;;;;4987352;28;20049;-77
2023/08/19 06:03:44;;;;;;;11.45;8.23;;;20.90;99.90;;;;;;4978540;28;20117;-77
2023/08/19 06:06:10;;;;;;;11.48;7.57;;;21.00;99.90;;;;;;4986853;28;20082;-79
2023/08/19 06:08:35;;;;;;;11.52;8.20;;;21.00;99.90;;;;;;4981737;28;20070;-79
2023/08/19 06:11:05;;;;;;;10.63;7.18;;;21.10;99.90;;;;;;4979168;28;20148;-79
2023/08/19 06:13:31;;;;;;;11.68;7.97;;;21.20;99.90;;;;;;4980308;28;20128;-78
2023/08/19 06:15:57;;;;;;;14.45;7.57;;;21.20;99.90;;;;;;4986083;28;20042;-79
2023/08/19 06:18:24;;;;;;;8.35;6.93;;;21.30;99.90;;;;;;4984267;28;20485;-79
2023/08/19 06:20:50;;;;;;;11.80;7.70;;;21.30;99.90;;;;;;5000635;28;20113;-78
2023/08/19 06:23:19;;;;;;;10.55;7.57;;;21.40;99.90;;;;;;5001814;28;20050;-78
2023/08/19 06:25:47;;;;;;;9.25;7.22;;;21.50;99.90;;;;;;4984972;28;20042;-78
2023/08/19 06:28:13;;;;;;;10.30;7.05;;;21.70;99.90;;;;;;4985614;28;20082;-78
2023/08/19 06:30:39;;;;;;;8.73;6.93;;;21.80;99.90;;;;;;5001392;28;20573;-78
2023/08/19 06:33:05;;;;;;;9.15;6.55;;;21.90;99.90;;;;;;4985465;28;20042;-78
2023/08/19 06:35:31;;;;;;;9.00;6.75;;;22.00;99.90;;;;;;4998116;28;20050;-79
2023/08/19 06:38:02;;;;;;;8.38;6.70;;;22.00;99.90;;;;;;4973210;28;20046;-78
2023/08/19 06:40:30;;;;;;;9.40;6.57;;;22.00;99.90;;;;;;4997119;28;20042;-78
2023/08/19 06:42:58;;;;;;;12.00;6.47;;;22.00;99.90;;;;;;4991695;28;20669;-78
2023/08/19 06:45:26;;;;;;;10.95;6.72;;;22.00;99.90;;;;;;4975988;28;20034;-78
2023/08/19 06:47:53;;;;;;;8.57;6.47;;;21.90;99.90;;;;;;4974731;28;20475;-77
2023/08/19 06:50:19;;;;;;;12.70;6.88;;;21.90;99.90;;;;;;4976889;28;20460;-80
2023/08/19 06:52:45;;;;;;;10.85;6.22;;;22.00;99.90;;;;;;4972623;28;20054;-78
2023/08/19 06:55:12;;;;;;;9.45;5.82;;;22.10;99.90;;;;;;4976244;28;20034;-78
2023/08/19 06:57:47;;;;;;;9.18;6.15;;;22.10;99.90;;;;;;4969111;28;20044;-77
2023/08/19 07:00:14;;;;;;;9.30;6.55;;;22.30;96.50;;;;;;4971061;28;20482;-78
2023/08/19 07:02:41;;;;;;;9.88;6.45;;;22.40;91.60;;;;;;4981267;28;20042;-79
2023/08/19 07:05:15;;;;;;;9.15;6.43;;;22.60;77.90;;;;;;4988656;28;20091;-79
2023/08/19 07:07:47;;;;;;;8.48;5.97;;;22.60;63.10;;;;;;4961986;28;20046;-82
2023/08/19 07:10:15;;;;;;;10.00;6.40;;;22.70;51.60;;;;;;4984292;28;20042;-83
2023/08/19 07:12:42;;;;;;;9.73;6.45;;;22.70;40.90;;;;;;4986126;28;20050;-82
2023/08/19 07:15:12;;;;;;;9.73;5.65;;;22.80;26.20;;;;;;4985302;28;20050;-81
2023/08/19 07:17:46;;;;;;;8.13;6.05;;;22.80;16.30;;;;;;4984576;28;20100;-83
2023/08/19 07:20:16;;;;;;;7.63;5.72;;;22.80;8.70;;;;;;4985739;28;20046;-83
2023/08/19 07:22:43;;;;;;;7.57;5.32;;;22.80;1.90;;;;;;4986787;28;20137;-82
2023/08/19 07:25:10;;;;;;;11.00;6.30;;;22.80;1.00;;;;;;4978728;28;20480;-83
2023/08/19 07:27:36;;;;;;;7.82;5.97;;;22.90;1.00;;;;;;4998259;28;20061;-82
2023/08/19 07:30:03;;;;;;;8.32;6.03;;;22.90;1.00;;;;;;4981344;28;20054;-82
2023/08/19 07:32:31;;;;;;;8.00;5.68;;;23.00;1.00;;;;;;4979483;28;20054;-83
2023/08/19 07:34:57;;;;;;;8.93;5.28;;;23.10;1.00;;;;;;4997683;28;21176;-81
2023/08/19 07:37:23;;;;;;;11.23;5.60;;;23.20;1.00;;;;;;4982406;28;20046;-83
2023/08/19 07:39:53;;;;;;;8.35;5.80;;;23.30;1.00;;;;;;4983665;28;20030;-84
2023/08/19 07:42:18;;;;;;;9.07;5.50;;;23.40;1.00;;;;;;4983211;28;20050;-82
2023/08/19 07:44:44;;;;;;;6.60;4.65;;;23.50;1.00;;;;;;4979762;28;20030;-82
2023/08/19 07:47:09;;;;;;;6.32;4.70;;;23.60;1.00;;;;;;4980345;28;20070;-82
2023/08/19 07:49:35;;;;;;;7.43;5.38;;;23.70;1.00;;;;;;4983267;28;20752;-82
2023/08/19 07:52:01;;;;;;;9.05;5.53;;;23.80;1.00;;;;;;4982065;28;20038;-82
2023/08/19 07:54:26;;;;;;;10.80;5.38;;;23.90;1.00;;;;;;4982910;28;20042;-81
2023/08/19 07:56:53;;;;;;;10.63;4.82;;;24.00;1.00;;;;;;4999618;28;20417;-81
2023/08/19 07:59:21;;;;;;;6.03;4.55;;;24.20;99.90;;;;;;4991159;28;20038;-81
2023/08/19 08:01:47;;;;;;;7.35;4.85;;;24.30;99.90;;;;;;4983530;28;20085;-81
2023/08/19 08:04:12;;;;;;;5.88;4.22;;;24.40;99.90;;;;;;4966076;28;20120;-81
2023/08/19 08:06:38;;;;;;;4.75;3.92;;;24.40;99.90;;;;;;4983309;28;20065;-81
2023/08/19 08:09:04;;;;;;;5.47;4.28;;;24.50;99.90;;;;;;4980940;28;20042;-81
2023/08/19 08:11:29;;;;;;;5.18;4.15;;;24.60;99.90;;;;;;4977640;28;20043;-82
2023/08/19 08:13:56;;;;;;;6.13;4.45;;;24.70;99.90;;;;;;4975966;28;20042;-81
2023/08/19 08:16:21;;;;;;;5.85;4.13;;;24.80;99.90;;;;;;4983115;28;20389;-81
2023/08/19 08:18:47;;;;;;;7.45;4.32;;;24.90;99.90;;;;;;4965031;28;20053;-81
2023/08/19 08:21:14;;;;;;;6.30;4.50;;;25.00;99.90;;;;;;4979760;28;20049;-80
2023/08/19 08:23:40;;;;;;;5.93;3.53;;;25.10;99.90;;;;;;4979987;28;20047;-81
2023/08/19 08:26:08;;;;;;;7.70;4.30;;;25.10;12.20;;;;;;4998563;28;20937;-81
2023/08/19 08:28:33;;;;;;;6.03;4.07;;;25.20;1.00;;;;;;4982009;28;20049;-85
2023/08/19 08:30:59;;;;;;;8.93;4.22;;;25.30;1.00;;;;;;4974209;28;20317;-84
2023/08/19 08:33:25;;;;;;;6.55;4.07;;;25.40;1.00;;;;;;4979985;28;20046;-85
2023/08/19 08:35:51;;;;;;;5.22;4.43;;;25.60;1.00;;;;;;4966745;28;20782;-84
2023/08/19 08:38:17;;;;;;;5.78;4.35;;;25.70;1.00;;;;;;4980815;28;20050;-79
2023/08/19 08:40:43;;;;;;;6.68;4.25;;;26.00;99.90;;;;;;4979309;28;20034;-81
2023/08/19 08:43:08;;;;;;;8.30;4.45;;;26.30;99.90;;;;;;4991913;28;20416;-81
2023/08/19 08:45:35;;;;;;;7.47;4.05;;;26.50;99.90;;;;;;4994082;28;20034;-81
2023/08/19 08:48:02;;;;;;;5.30;3.90;;;26.50;99.90;;;;;;4986949;28;20069;-81
2023/08/19 08:50:28;;;;;;;7.95;4.38;;;26.60;99.90;;;;;;4971606;28;20519;-81
2023/08/19 08:52:56;;;;;;;7.05;4.10;;;26.70;99.90;;;;;;4987799;28;20045;-80
2023/08/19 08:55:21;;;;;;;4.10;3.40;;;26.80;99.90;;;;;;4988080;28;20517;-81
2023/08/19 08:57:47;;;;;;;5.90;3.95;;;26.80;99.90;;;;;;4983596;28;20074;-80
2023/08/19 09:00:14;;;;;;;5.38;4.13;;;26.80;99.90;;;;;;4986471;28;20069;-81
2023/08/19 09:02:42;;;;;;;5.18;3.45;;;26.90;99.90;;;;;;4987903;28;20113;-81
2023/08/19 09:05:08;;;;;;;7.03;3.30;;;27.10;99.90;;;;;;4987816;28;20026;-81
2023/08/19 09:07:41;;;;;;;5.43;4.13;;;27.30;99.90;;;;;;4970163;28;20108;-82
2023/08/19 09:10:13;;;;;;;10.25;3.78;;;27.30;99.90;;;;;;4983489;28;20038;-81
2023/08/19 09:12:47;;;;;;;5.13;3.80;;;27.40;99.90;;;;;;4991225;28;20058;-81
2023/08/19 09:15:15;;;;;;;4.70;3.67;;;27.50;99.90;;;;;;4977037;28;20078;-81
2023/08/19 09:17:42;;;;;;;5.57;3.80;;;27.60;99.90;;;;;;4998370;28;20054;-81
2023/08/19 09:20:08;;;;;;;5.38;3.75;;;27.90;99.90;;;;;;4971243;28;20034;-81
2023/08/19 09:22:38;;;;;;;4.10;3.28;;;28.10;96.20;;;;;;4985247;28;20046;-81
2023/08/19 09:25:07;;;;;;;6.13;3.55;;;28.20;75.70;;;;;;4987592;28;20496;-81
2023/08/19 09:27:32;;;;;;;5.35;3.65;;;28.20;66.10;;;;;;4983411;28;20550;-81
2023/08/19 09:29:59;;;;;;;5.78;3.08;;;28.30;70.30;;;;;;4976971;28;20046;-81
2023/08/19 09:32:30;;;;;;;5.60;3.78;;;28.50;61.20;;;;;;5001617;28;20401;-81
2023/08/19 09:35:14;;;;;;;4.35;3.67;;;28.60;45.40;;;;;;4960320;28;20077;-81
2023/08/19 09:37:41;;;;;;;5.85;3.70;;;28.80;41.80;;;;;;4985080;28;20046;-80
2023/08/19 09:40:11;;;;;;;4.85;3.90;;;28.90;12.00;;;;;;4987113;28;20038;-80
2023/08/19 09:42:38;;;;;;;4.85;3.92;;;28.90;13.60;;;;;;5002683;28;20170;-80
2023/08/19 09:45:05;;;;;;;8.23;4.05;;;28.50;1.00;;;;;;5002276;28;20049;-79
2023/08/19 09:47:44;;;;;;;7.70;3.83;;;28.30;1.00;;;;;;4998252;28;20057;-81
2023/08/19 09:50:09;;;;;;;9.02;4.00;;;28.20;1.00;;;;;;4983715;28;20042;-80
2023/08/19 09:52:35;;;;;;;6.22;4.18;;;28.20;1.00;;;;;;5002225;28;20046;-81
2023/08/19 09:55:01;;;;;;;9.10;4.07;;;28.30;1.00;;;;;;5001759;28;20145;-81
2023/08/19 09:57:34;;;;;;;6.57;4.50;;;28.40;1.00;;;;;;4985880;28;20050;-80
2023/08/19 10:00:01;;;;;;;11.02;5.03;;;28.60;1.00;;;;;;4975527;28;20131;-81
2023/08/19 10:02:30;;;;;;;6.63;4.43;;;28.80;1.00;;;;;;4986366;28;20080;-81
2023/08/19 10:04:56;;;;;;;7.43;4.05;;;29.10;1.00;;;;;;4970539;28;20146;-80
2023/08/19 10:07:27;;;;;;;6.57;4.15;;;29.30;1.00;;;;;;4970417;28;20066;-80
2023/08/19 10:09:54;;;;;;;7.28;4.20;;;29.40;1.00;;;;;;4986736;28;20409;-81
2023/08/19 10:12:22;;;;;;;6.68;3.85;;;29.20;1.00;;;;;;5001775;28;20046;-80
2023/08/19 10:14:51;;;;;;;7.30;3.90;;;28.90;1.00;;;;;;4970495;28;20417;-80
2023/08/19 10:17:19;;;;;;;6.18;3.72;;;28.40;1.00;;;;;;5001968;28;20117;-81
2023/08/19 10:20:09;;;;;;;12.45;5.03;;;28.00;1.00;;;;;;4969234;28;20045;-81
2023/08/19 10:22:39;;;;;;;4.95;3.67;;;27.20;1.00;;;;;;4971895;28;20526;-81
2023/08/19 10:25:07;;;;;;;8.13;3.85;;;26.40;19.80;;;;;;4999134;28;20604;-81
2023/08/19 10:27:32;;;;;;;8.55;4.55;;;25.90;99.90;;;;;;4985917;28;20049;-82
2023/08/19 10:29:58;;;;;;;8.05;4.60;;;25.60;99.90;;;;;;4969416;28;20051;-81
2023/08/19 10:32:30;;;;;;;8.05;4.65;;;25.10;1.00;;;;;;4986216;28;20096;-81
2023/08/19 10:35:08;;;;;;;5.97;4.25;;;24.80;53.30;;;;;;5000162;28;20125;-81
2023/08/19 10:37:40;;;;;;;5.03;4.18;;;24.70;99.90;;;;;;4976592;28;20042;-81
2023/08/19 10:40:11;;;;;;;5.90;4.53;;;24.60;99.90;;;;;;4967909;28;20358;-81
2023/08/19 10:42:37;;;;;;;6.03;4.55;;;24.60;99.90;;;;;;4969542;28;20042;-81
2023/08/19 10:45:13;;;;;;;12.38;4.97;;;24.60;99.90;;;;;;5001421;28;20045;-81
2023/08/19 10:47:39;;;;;;;;;;;24.60;1.00;;;;;;5002368;28;20046;-81
2023/08/19 10:50:07;;;;;;;6.97;4.85;;;24.60;1.00;;;;;;5001022;28;19924;-81
2023/08/19 10:52:32;;;;;;;8.38;4.53;;;24.50;1.00;;;;;;4968951;28;20129;-81
2023/08/19 10:55:04;;;;;;;9.00;5.07;;;24.50;1.00;;;;;;4985945;28;20122;-81
2023/08/19 10:57:30;;;;;;;8.15;4.68;;;24.20;1.00;;;;;;4985030;28;20058;-80
2023/08/19 10:59:59;;;;;;;8.55;4.88;;;24.00;1.00;;;;;;4980837;28;20042;-82
2023/08/19 11:02:26;;;;;;;6.88;5.15;;;24.00;1.00;;;;;;4983256;28;20504;-82
2023/08/19 11:04:58;;;;;;;8.63;5.00;;;23.90;1.00;;;;;;4991307;28;20077;-82
2023/08/19 11:07:25;;;;;;;6.72;4.82;;;23.90;1.00;;;;;;4984519;28;20045;-81
2023/08/19 11:09:54;;;;;;;7.45;5.15;;;24.00;1.00;;;;;;4959728;28;20042;-82
2023/08/19 11:12:26;;;;;;;6.80;5.15;;;24.10;1.00;;;;;;4996056;28;20039;-82
2023/08/19 11:14:55;;;;;;;6.00;4.97;;;24.20;1.00;;;;;;4977504;28;20050;-81
2023/08/19 11:17:32;;;;;;;6.03;4.97;;;24.30;1.00;;;;;;4972297;28;20554;-81
2023/08/19 11:20:10;;;;;;;6.15;4.63;;;24.50;1.00;;;;;;4985021;28;20074;-82
2023/08/19 11:22:47;;;;;;;6.88;5.03;;;24.80;1.00;;;;;;4985128;28;20042;-80
2023/08/19 11:25:14;;;;;;;7.50;4.78;;;25.90;3.10;;;;;;4969311;28;20061;-80
2023/08/19 11:27:40;;;;;;;6.35;5.18;;;26.90;1.00;;;;;;4985149;28;20373;-82
2023/08/19 11:30:10;;;;;;;8.77;5.45;;;27.70;99.90;;;;;;4980731;28;20057;-79
2023/08/19 11:32:35;;;;;;;8.27;5.57;;;28.10;99.90;;;;;;4977056;28;20039;-82
2023/08/19 11:35:01;;;;;;;8.90;6.18;;;28.00;99.90;;;;;;4984521;28;20076;-82
2023/08/19 11:37:30;;;;;;;9.65;6.38;;;27.80;54.10;;;;;;4964883;28;20057;-82
2023/08/19 11:40:03;;;;;;;10.57;6.57;;;27.70;1.00;;;;;;4980592;28;20039;-79
2023/08/19 11:42:28;;;;;;;8.73;5.47;;;27.70;1.00;;;;;;4987709;28;20105;-80
2023/08/19 11:44:56;;;;;;;7.95;6.55;;;27.70;1.00;;;;;;4991535;28;20039;-79
2023/08/19 11:47:23;;;;;;;8.05;6.40;;;27.70;99.90;;;;;;4988422;28;20156;-79
2023/08/19 11:49:50;;;;;;;8.23;5.90;;;27.50;99.90;;;;;;4995441;28;20089;-80
2023/08/19 11:52:21;;;;;;;8.68;6.30;;;27.50;99.90;;;;;;4979564;28;20077;-82
2023/08/19 11:55:06;;;;;;;9.05;6.30;;;27.60;99.90;;;;;;4985045;28;20042;-82
2023/08/19 11:57:37;;;;;;;10.23;7.07;;;28.10;99.90;;;;;;5000616;28;20132;-82
2023/08/19 12:00:06;;;;;;;11.20;7.57;;;28.60;99.90;;;;;;4984223;28;20061;-80
2023/08/19 12:02:32;;;;;;;12.82;8.45;;;29.00;99.90;;;;;;4984608;28;20077;-81
2023/08/19 12:04:58;;;;;;;11.38;7.88;;;29.30;99.90;;;;;;4963221;28;20548;-82
2023/08/19 12:07:29;;;;;;;11.30;8.05;;;29.50;75.60;;;;;;5000793;28;20123;-81
2023/08/19 12:09:58;;;;;;;12.38;9.02;;;29.90;32.40;;;;;;4984661;28;20072;-82
2023/08/19 12:12:24;;;;;;;12.48;9.98;;;30.00;1.00;;;;;;4961022;28;20058;-81
2023/08/19 12:14:50;;;;;;;11.27;9.13;;;29.80;1.00;;;;;;5000062;28;20092;-81
2023/08/19 12:17:17;;;;;;;13.98;9.93;;;29.80;1.00;;;;;;5000011;28;20042;-81
2023/08/19 12:19:43;;;;;;;13.35;9.38;;;29.80;1.00;;;;;;5004336;28;20062;-81
2023/08/19 12:22:09;;;;;;;14.68;9.88;;;29.90;1.00;;;;;;4976717;28;20068;-82
2023/08/19 12:24:35;;;;;;;15.98;11.55;;;29.90;1.00;;;;;;5002800;28;20092;-82
2023/08/19 12:27:01;;;;;;;14.65;11.93;;;29.70;1.00;;;;;;4988282;28;20046;-82
2023/08/19 12:29:27;;;;;;;17.05;12.15;;;29.50;1.00;;;;;;5003824;28;20057;-82
2023/08/19 12:31:52;;;;;;;16.15;12.27;;;29.10;1.00;;;;;;4988089;28;20145;-81
2023/08/19 12:34:18;;;;;;;18.27;12.48;;;28.60;1.00;;;;;;4968500;28;20442;-81
2023/08/19 12:36:44;;;;;;;14.55;11.75;;;28.20;1.00;;;;;;4962627;28;20046;-81
2023/08/19 12:39:09;;;;;;;15.57;11.63;;;27.80;34.60;;;;;;4984188;28;20078;-81